createdAt,value
2022-08-19T00:02:01.090Z,1.00
2022-08-19T00:04:37.188Z,1.00
2022-08-19T00:07:05.681Z,1.00
2022-08-19T00:09:32.675Z,1.00
2022-08-19T00:11:59.826Z,1.00
2022-08-19T00:14:27.754Z,1.00
2022-08-19T00:16:55.580Z,18.40
2022-08-19T00:19:23.763Z,10.90
2022-08-19T00:21:50.799Z,36.10
2022-08-19T00:24:17.580Z,37.70
2022-08-19T00:26:46.499Z,42.40
2022-08-19T00:29:16.427Z,69.10
2022-08-19T00:31:44.160Z,92.80
2022-08-19T00:34:12.858Z,96.50
2022-08-19T00:36:40.634Z,92.20
2022-08-19T00:39:07.578Z,99.90
2022-08-19T00:41:34.328Z,99.90
2022-08-19T00:44:10.177Z,99.90
2022-08-19T00:46:39.136Z,99.90
2022-08-19T00:49:29.320Z,99.90
2022-08-19T00:52:06.059Z,99.90
2022-08-19T00:54:34.052Z,99.90
2022-08-19T00:57:01.342Z,99.90
2022-08-19T00:59:58.766Z,99.90
2022-08-19T01:02:17.251Z,99.90
2022-08-19T01:04:43.930Z,99.90
2022-08-19T01:07:11.200Z,99.90
2022-08-19T01:09:42.095Z,99.90
2022-08-19T01:12:09.629Z,99.90
2022-08-19T01:14:38.019Z,99.90
2022-08-19T01:17:05.216Z,99.90
2022-08-19T01:19:44.139Z,99.90
2022-08-19T01:22:33.815Z,99.90
2022-08-19T01:25:01.609Z,99.90
2022-08-19T01:27:30.800Z,99.90
2022-08-19T01:30:09.611Z,99.90
2022-08-19T01:32:36.353Z,99.90
2022-08-19T01:35:04.717Z,99.90
2022-08-19T01:37:43.443Z,99.90
2022-08-19T01:40:10.926Z,99.90
2022-08-19T01:42:37.983Z,99.90
2022-08-19T01:45:06.715Z,99.90
2022-08-19T01:47:33.419Z,99.90
2022-08-19T01:50:00.242Z,99.90
2022-08-19T01:52:27.126Z,99.90
2022-08-19T01:54:54.353Z,99.90
2022-08-19T01:57:21.101Z,99.90
2022-08-19T01:59:47.866Z,99.90
2022-08-19T02:02:14.814Z,99.90
2022-08-19T02:04:41.530Z,1.00
2022-08-19T02:07:09.116Z,1.00
2022-08-19T02:09:36.146Z,1.00
2022-08-19T02:12:03.204Z,1.00
2022-08-19T02:14:30.125Z,1.00
2022-08-19T02:16:57.003Z,1.00
2022-08-19T02:19:23.664Z,1.00
2022-08-19T02:21:50.446Z,1.00
2022-08-19T02:24:17.367Z,1.00
2022-08-19T02:26:44.171Z,1.00
2022-08-19T02:29:10.855Z,1.00
2022-08-19T02:31:37.552Z,1.00
2022-08-19T02:34:04.321Z,1.00
2022-08-19T02:36:31.679Z,1.00
2022-08-19T02:38:58.452Z,1.00
2022-08-19T02:41:29.224Z,1.00
2022-08-19T02:44:22.884Z,1.00
2022-08-19T02:46:45.991Z,1.00
2022-08-19T02:49:12.779Z,1.00
2022-08-19T02:51:42.432Z,2.90
2022-08-19T02:54:10.512Z,4.20
2022-08-19T02:56:38.441Z,1.00
2022-08-19T02:59:11.830Z,30.00
2022-08-19T03:01:40.866Z,86.20
2022-08-19T03:04:09.001Z,99.90
2022-08-19T03:06:39.360Z,99.90
2022-08-19T03:09:06.063Z,99.90
2022-08-19T03:11:33.683Z,99.90
2022-08-19T03:14:01.455Z,99.90
2022-08-19T03:16:33.502Z,99.90
2022-08-19T03:19:01.939Z,99.90
2022-08-19T03:21:31.202Z,99.90
2022-08-19T03:23:59.613Z,99.90
2022-08-19T03:26:26.345Z,99.90
2022-08-19T03:28:58.598Z,99.90
2022-08-19T03:31:44.763Z,99.90
2022-08-19T03:34:18.545Z,99.90
2022-08-19T03:36:45.777Z,99.90
2022-08-19T03:39:12.517Z,99.90
2022-08-19T03:41:45.751Z,99.90
2022-08-19T03:44:18.093Z,99.90
2022-08-19T03:46:46.773Z,99.90
2022-08-19T03:49:14.283Z,1.00
2022-08-19T03:51:42.769Z,1.00
2022-08-19T03:54:11.787Z,1.00
2022-08-19T03:56:40.223Z,99.90
2022-08-19T03:59:09.291Z,1.00
2022-08-19T04:01:36.290Z,1.00
2022-08-19T04:04:04.733Z,1.00
2022-08-19T04:06:33.815Z,1.00
2022-08-19T04:09:02.359Z,1.00
2022-08-19T04:11:42.962Z,1.00
2022-08-19T04:14:16.529Z,1.00
2022-08-19T04:16:45.489Z,1.00
2022-08-19T04:19:13.119Z,1.00
2022-08-19T04:21:40.713Z,1.00
2022-08-19T04:24:08.075Z,1.00
2022-08-19T04:26:37.827Z,1.00
2022-08-19T04:29:16.658Z,1.00
2022-08-19T04:31:44.338Z,1.00
2022-08-19T04:34:12.513Z,1.00
2022-08-19T04:36:42.406Z,1.00
2022-08-19T04:39:11.422Z,1.00
2022-08-19T04:41:56.929Z,1.00
2022-08-19T04:44:23.612Z,1.50
2022-08-19T04:46:52.077Z,1.00
2022-08-19T04:49:23.448Z,16.90
2022-08-19T04:51:53.353Z,99.90
2022-08-19T04:54:37.751Z,99.90
2022-08-19T04:57:09.691Z,99.90
2022-08-19T04:59:37.469Z,99.90
2022-08-19T05:02:05.717Z,99.90
2022-08-19T05:04:33.700Z,99.90
2022-08-19T05:07:04.474Z,99.90
2022-08-19T05:09:42.196Z,99.90
2022-08-19T05:12:19.032Z,99.90
2022-08-19T05:14:48.825Z,99.90
2022-08-19T05:17:36.260Z,1.00
2022-08-19T05:20:21.976Z,1.00
2022-08-19T05:22:49.086Z,1.00
2022-08-19T05:25:21.975Z,1.00
2022-08-19T05:27:49.116Z,1.00
2022-08-19T05:30:15.997Z,1.00
2022-08-19T05:32:43.105Z,1.00
2022-08-19T05:35:10.487Z,1.00
2022-08-19T05:37:37.366Z,1.00
2022-08-19T05:40:05.039Z,1.00
2022-08-19T05:42:31.890Z,38.00
2022-08-19T05:44:58.926Z,1.00
2022-08-19T05:47:25.683Z,96.90
2022-08-19T05:49:52.406Z,25.20
2022-08-19T05:52:19.622Z,1.00
2022-08-19T05:54:53.122Z,99.90
2022-08-19T05:57:20.393Z,99.90
2022-08-19T05:59:49.354Z,93.80
2022-08-19T06:02:19.763Z,99.90
2022-08-19T06:04:46.458Z,99.90
2022-08-19T06:07:13.228Z,99.90
2022-08-19T06:09:41.468Z,1.00
2022-08-19T06:12:21.995Z,1.00
2022-08-19T06:14:48.680Z,1.00
2022-08-19T06:17:28.161Z,1.00
2022-08-19T06:19:54.858Z,1.00
2022-08-19T06:22:21.718Z,1.00
2022-08-19T06:24:48.410Z,1.00
2022-08-19T06:27:15.146Z,1.00
2022-08-19T06:29:43.289Z,99.90
2022-08-19T06:32:10.041Z,1.00
2022-08-19T06:34:36.864Z,1.00
2022-08-19T06:37:04.019Z,1.00
2022-08-19T06:39:33.998Z,99.90
2022-08-19T06:42:04.226Z,99.90
2022-08-19T06:44:37.288Z,99.90
2022-08-19T06:47:24.021Z,99.90
2022-08-19T06:50:03.788Z,99.90
2022-08-19T06:52:38.255Z,1.00
2022-08-19T06:55:09.269Z,1.00
2022-08-19T06:57:42.048Z,99.90
2022-08-19T07:03:08.640Z,99.90
2022-08-19T07:05:45.708Z,1.00
2022-08-19T07:08:14.071Z,99.90
2022-08-19T07:10:45.705Z,99.90
2022-08-19T07:13:12.566Z,99.90
2022-08-19T07:15:39.966Z,99.90
2022-08-19T07:18:06.746Z,99.90
2022-08-19T07:20:33.767Z,1.00
2022-08-19T07:23:01.538Z,1.00
2022-08-19T07:25:33.967Z,1.00
2022-08-19T07:28:01.641Z,6.90
2022-08-19T07:30:31.592Z,1.00
2022-08-19T07:32:58.532Z,99.90
2022-08-19T07:35:26.627Z,1.00
2022-08-19T07:37:53.995Z,1.00
2022-08-19T07:40:21.284Z,1.00
2022-08-19T07:42:48.107Z,1.00
2022-08-19T07:45:16.561Z,1.00
2022-08-19T07:47:50.260Z,1.00
2022-08-19T07:50:26.737Z,1.00
2022-08-19T07:52:53.880Z,1.00
2022-08-19T07:55:42.056Z,1.00
2022-08-19T07:58:11.115Z,1.00
2022-08-19T08:00:38.212Z,99.90
2022-08-19T08:03:05.048Z,99.90
2022-08-19T08:05:51.183Z,95.50
2022-08-19T08:08:47.980Z,99.90
2022-08-19T08:11:20.430Z,99.90
2022-08-19T08:14:00.325Z,1.00
2022-08-19T08:16:30.849Z,99.90
2022-08-19T08:18:58.929Z,1.00
2022-08-19T08:21:25.812Z,99.90
2022-08-19T08:23:56.391Z,1.00
2022-08-19T08:26:23.873Z,99.90
2022-08-19T08:28:50.955Z,1.00
2022-08-19T08:31:20.746Z,99.90
2022-08-19T08:33:47.803Z,99.90
2022-08-19T08:36:15.874Z,99.90
2022-08-19T08:38:46.416Z,99.90
2022-08-19T08:41:24.264Z,1.00
2022-08-19T08:43:53.119Z,1.00
2022-08-19T08:46:31.327Z,1.00
2022-08-19T08:49:05.185Z,1.00
2022-08-19T08:51:39.141Z,1.00
2022-08-19T08:54:09.831Z,1.00
2022-08-19T08:56:43.899Z,1.00
2022-08-19T08:59:27.740Z,99.90
2022-08-19T09:01:54.755Z,99.90
2022-08-19T09:04:21.605Z,99.90
2022-08-19T09:07:00.959Z,99.90
2022-08-19T09:09:40.466Z,99.90
2022-08-19T09:12:32.944Z,99.90
2022-08-19T09:15:09.090Z,99.90
2022-08-19T09:17:36.193Z,99.90
2022-08-19T09:20:23.237Z,99.90
2022-08-19T09:22:50.720Z,99.90
2022-08-19T09:25:26.927Z,99.90
2022-08-19T09:28:05.743Z,99.90
2022-08-19T09:30:42.527Z,99.90
2022-08-19T09:33:09.393Z,99.90
2022-08-19T09:35:49.830Z,99.90
2022-08-19T09:38:20.419Z,99.90
2022-08-19T09:40:47.790Z,99.90
2022-08-19T09:43:14.478Z,1.00
2022-08-19T09:45:41.492Z,1.00
2022-08-19T09:48:09.561Z,1.00
2022-08-19T09:50:39.567Z,1.00
2022-08-19T09:53:19.069Z,1.00
2022-08-19T09:55:46.189Z,1.00
2022-08-19T09:58:13.063Z,1.00
2022-08-19T10:00:39.920Z,1.00
2022-08-19T10:03:07.141Z,1.00
2022-08-19T10:05:50.365Z,1.00
2022-08-19T10:08:28.721Z,1.00
2022-08-19T10:10:56.143Z,1.00
2022-08-19T10:13:25.866Z,1.00
2022-08-19T10:15:57.192Z,1.00
2022-08-19T10:18:25.385Z,1.00
2022-08-19T10:20:54.561Z,1.00
2022-08-19T10:23:22.025Z,1.00
2022-08-19T10:25:49.627Z,1.00
2022-08-19T10:28:19.433Z,1.00
2022-08-19T10:30:47.409Z,1.00
2022-08-19T10:33:14.962Z,1.00
2022-08-19T10:35:56.620Z,1.00
2022-08-19T10:38:29.304Z,1.00
2022-08-19T10:41:07.565Z,1.00
2022-08-19T10:43:37.791Z,1.00
2022-08-19T10:46:06.486Z,1.00
2022-08-19T10:48:41.494Z,1.00
2022-08-19T10:51:27.126Z,1.00
2022-08-19T10:53:54.987Z,1.00
2022-08-19T10:56:40.398Z,1.00
2022-08-19T10:59:07.432Z,1.00
2022-08-19T11:01:35.593Z,1.00
2022-08-19T11:04:03.924Z,1.00
2022-08-19T11:06:32.750Z,1.00
2022-08-19T11:09:00.865Z,1.00
2022-08-19T11:11:29.299Z,1.00
2022-08-19T11:13:55.982Z,1.00
2022-08-19T11:16:26.443Z,1.00
2022-08-19T11:19:02.412Z,1.00
2022-08-19T11:21:34.589Z,1.00
2022-08-19T11:24:04.909Z,1.00
2022-08-19T11:26:32.198Z,1.00
2022-08-19T11:28:59.906Z,1.00
2022-08-19T11:31:29.899Z,1.00
2022-08-19T11:34:01.025Z,1.00
2022-08-19T11:36:27.954Z,1.00
2022-08-19T11:38:55.655Z,1.00
2022-08-19T11:41:26.478Z,1.00
2022-08-19T11:43:56.026Z,99.90
2022-08-19T11:46:25.080Z,99.90
2022-08-19T11:48:51.944Z,99.90
2022-08-19T11:51:22.589Z,99.90
2022-08-19T11:53:51.266Z,99.90
2022-08-19T11:56:19.600Z,99.90
2022-08-19T11:58:46.736Z,99.90
2022-08-19T12:01:18.104Z,99.90
2022-08-19T12:03:45.995Z,99.90
2022-08-19T12:06:16.013Z,99.90
2022-08-19T12:08:43.960Z,99.90
2022-08-19T12:11:11.861Z,99.90
2022-08-19T12:13:42.127Z,99.90
2022-08-19T12:16:20.899Z,99.90
2022-08-19T12:18:47.991Z,99.90
2022-08-19T12:21:17.122Z,99.90
2022-08-19T12:23:47.366Z,99.90
2022-08-19T12:26:14.289Z,99.90
2022-08-19T12:28:42.367Z,99.90
2022-08-19T12:31:09.587Z,99.90
2022-08-19T12:33:36.286Z,1.00
2022-08-19T12:36:06.315Z,99.90
2022-08-19T12:38:35.471Z,91.90
2022-08-19T12:41:04.291Z,43.80
2022-08-19T12:43:31.245Z,1.00
2022-08-19T12:45:58.189Z,1.00
2022-08-19T12:48:34.866Z,99.90
2022-08-19T12:51:06.837Z,1.00
2022-08-19T12:53:33.679Z,1.00
2022-08-19T12:56:01.333Z,1.00
2022-08-19T12:58:29.377Z,1.00
2022-08-19T13:00:56.274Z,1.00
2022-08-19T13:03:30.120Z,1.00
2022-08-19T13:05:57.656Z,99.90
2022-08-19T13:08:24.563Z,1.00
2022-08-19T13:10:51.726Z,37.40
2022-08-19T13:13:18.518Z,99.90
2022-08-19T13:15:46.195Z,99.90
2022-08-19T13:18:13.634Z,99.90
2022-08-19T13:20:52.497Z,99.90
2022-08-19T13:23:19.727Z,99.90
2022-08-19T13:25:46.371Z,93.20
2022-08-19T13:28:14.939Z,99.90
2022-08-19T13:33:17.196Z,99.90
2022-08-19T13:35:45.890Z,99.90
2022-08-19T13:38:13.582Z,99.90
2022-08-19T13:40:41.236Z,99.90
2022-08-19T13:43:17.425Z,99.90
2022-08-19T13:45:51.508Z,99.90
2022-08-19T13:48:18.400Z,99.90
2022-08-19T13:50:47.701Z,99.90
2022-08-19T13:53:14.541Z,1.00
2022-08-19T13:55:43.012Z,1.00
2022-08-19T13:58:11.552Z,1.00
2022-08-19T14:00:41.031Z,1.00
2022-08-19T14:03:09.435Z,1.00
2022-08-19T14:05:36.380Z,1.00
2022-08-19T14:08:03.437Z,1.00
2022-08-19T14:10:31.701Z,1.00
2022-08-19T14:13:00.757Z,1.00
2022-08-19T14:15:27.917Z,1.00
2022-08-19T14:17:55.086Z,1.00
2022-08-19T14:20:22.507Z,1.00
2022-08-19T14:22:53.742Z,1.00
2022-08-19T14:25:25.733Z,1.00
2022-08-19T14:27:52.525Z,1.00
2022-08-19T14:30:27.779Z,1.00
2022-08-19T14:32:55.358Z,1.00
2022-08-19T14:35:22.830Z,1.00
2022-08-19T14:37:50.611Z,1.00
2022-08-19T14:40:21.483Z,1.00
2022-08-19T14:42:49.480Z,1.00
2022-08-19T14:45:16.245Z,1.00
2022-08-19T14:47:42.988Z,1.00
2022-08-19T14:50:18.265Z,1.00
2022-08-19T14:52:46.605Z,1.00
2022-08-19T14:55:13.361Z,1.00
2022-08-19T14:57:42.165Z,1.00
2022-08-19T15:00:13.726Z,1.00
2022-08-19T15:02:41.763Z,1.00
2022-08-19T15:05:08.944Z,1.00
2022-08-19T15:07:35.618Z,1.00
2022-08-19T15:10:02.296Z,1.00
2022-08-19T15:12:29.064Z,1.00
2022-08-19T15:14:56.856Z,1.00
2022-08-19T15:17:45.895Z,1.00
2022-08-19T15:20:13.605Z,1.00
2022-08-19T15:22:41.716Z,1.00
2022-08-19T15:25:11.547Z,1.00
2022-08-19T15:27:40.657Z,1.00
2022-08-19T15:30:11.352Z,1.00
2022-08-19T15:32:38.780Z,1.00
2022-08-19T15:35:07.035Z,1.00
2022-08-19T15:37:34.513Z,1.00
2022-08-19T15:40:05.958Z,1.00
2022-08-19T15:42:33.063Z,1.00
2022-08-19T15:45:01.479Z,1.00
2022-08-19T15:47:34.889Z,1.00
2022-08-19T15:50:15.270Z,1.00
2022-08-19T15:52:48.386Z,1.00
2022-08-19T15:55:33.601Z,1.00
2022-08-19T15:58:27.807Z,1.00
2022-08-19T16:01:15.578Z,1.00
2022-08-19T16:04:01.598Z,1.00
2022-08-19T16:06:30.061Z,1.00
2022-08-19T16:08:59.623Z,1.00
2022-08-19T16:11:30.444Z,1.00
2022-08-19T16:13:59.108Z,1.00
2022-08-19T16:16:33.751Z,1.00
2022-08-19T16:19:03.736Z,1.00
2022-08-19T16:21:34.285Z,1.00
2022-08-19T16:24:06.218Z,1.00
2022-08-19T16:26:34.771Z,1.00
2022-08-19T16:29:02.819Z,1.00
2022-08-19T16:31:36.361Z,1.00
2022-08-19T16:34:03.823Z,1.00
2022-08-19T16:36:31.555Z,1.00
2022-08-19T16:38:58.498Z,1.00
2022-08-19T16:41:25.352Z,1.00
2022-08-19T16:43:52.551Z,1.00
2022-08-19T16:46:20.506Z,1.00
2022-08-19T16:48:50.140Z,1.00
2022-08-19T16:51:17.222Z,1.00
2022-08-19T16:53:45.178Z,1.00
2022-08-19T16:56:12.513Z,1.00
2022-08-19T16:58:39.517Z,1.00
2022-08-19T17:01:08.400Z,1.00
2022-08-19T17:03:36.752Z,1.00
2022-08-19T17:06:20.162Z,1.00
2022-08-19T17:08:49.456Z,1.00
2022-08-19T17:11:19.173Z,1.00
2022-08-19T17:13:47.799Z,1.00
2022-08-19T17:16:15.757Z,1.00
2022-08-19T17:18:42.827Z,1.00
2022-08-19T17:21:09.463Z,1.00
2022-08-19T17:23:42.327Z,1.00
2022-08-19T17:26:15.901Z,1.00
2022-08-19T17:28:48.007Z,1.00
2022-08-19T17:31:15.303Z,1.00
2022-08-19T17:33:42.027Z,1.00
2022-08-19T17:36:09.305Z,1.00
2022-08-19T17:38:37.550Z,1.00
2022-08-19T17:41:05.432Z,1.00
2022-08-19T17:43:34.590Z,1.00
2022-08-19T17:46:04.790Z,1.00
2022-08-19T17:48:38.691Z,1.00
2022-08-19T17:51:17.090Z,1.00
2022-08-19T17:53:49.314Z,1.00
2022-08-19T17:56:16.047Z,1.00
2022-08-19T17:58:42.978Z,1.00
2022-08-19T18:01:14.621Z,1.00
2022-08-19T18:03:44.693Z,1.00
2022-08-19T18:06:16.377Z,1.00
2022-08-19T18:08:49.021Z,1.00
2022-08-19T18:11:16.436Z,1.00
2022-08-19T18:13:43.237Z,1.00
2022-08-19T18:16:12.431Z,1.00
2022-08-19T18:18:41.276Z,1.00
2022-08-19T18:21:08.743Z,1.00
2022-08-19T18:23:41.419Z,1.00
2022-08-19T18:26:11.679Z,1.00
2022-08-19T18:28:49.724Z,1.00
2022-08-19T18:31:17.122Z,1.00
2022-08-19T18:33:44.977Z,1.00
2022-08-19T18:36:11.991Z,1.00
2022-08-19T18:38:57.403Z,1.00
2022-08-19T18:41:43.757Z,1.00
2022-08-19T18:44:29.110Z,1.00
2022-08-19T18:47:14.656Z,1.00
2022-08-19T18:49:44.378Z,1.00
2022-08-19T18:52:11.095Z,1.00
2022-08-19T18:54:37.883Z,1.00
2022-08-19T18:57:05.691Z,1.00
2022-08-19T18:59:32.887Z,1.00
2022-08-19T19:02:00.640Z,1.00
2022-08-19T19:04:32.775Z,1.00
2022-08-19T19:07:00.086Z,1.00
2022-08-19T19:09:27.255Z,1.00
2022-08-19T19:11:59.739Z,1.00
2022-08-19T19:14:48.174Z,1.00
2022-08-19T19:17:15.769Z,1.00
2022-08-19T19:19:43.849Z,1.00
2022-08-19T19:22:13.213Z,1.00
2022-08-19T19:24:44.090Z,1.00
2022-08-19T19:27:13.174Z,1.00
2022-08-19T19:29:40.559Z,1.00
2022-08-19T19:32:10.786Z,1.00
2022-08-19T19:34:38.831Z,1.00
2022-08-19T19:37:05.871Z,1.00
2022-08-19T19:39:45.434Z,1.00
2022-08-19T19:42:19.845Z,1.00
2022-08-19T19:44:57.087Z,1.00
2022-08-19T19:47:24.434Z,1.00
2022-08-19T19:50:13.314Z,1.00
2022-08-19T19:52:39.750Z,1.00
2022-08-19T19:55:09.144Z,1.00
2022-08-19T19:57:37.428Z,1.00
2022-08-19T20:00:05.129Z,1.00
2022-08-19T20:02:31.945Z,1.00
2022-08-19T20:04:58.934Z,1.00
2022-08-19T20:07:45.955Z,1.00
2022-08-19T20:10:13.707Z,1.00
2022-08-19T20:12:40.541Z,1.00
2022-08-19T20:15:08.007Z,1.00
2022-08-19T20:17:42.321Z,1.00
2022-08-19T20:20:17.790Z,1.00
2022-08-19T20:22:45.910Z,1.00
2022-08-19T20:25:14.425Z,1.00
2022-08-19T20:27:42.090Z,1.00
2022-08-19T20:30:19.535Z,1.00
2022-08-19T20:32:47.721Z,1.00
2022-08-19T20:35:16.512Z,1.00
2022-08-19T20:37:43.421Z,1.00
2022-08-19T20:40:11.535Z,1.00
2022-08-19T20:42:40.392Z,1.00
2022-08-19T20:45:16.836Z,1.00
2022-08-19T20:47:59.632Z,1.00
2022-08-19T20:50:26.307Z,1.00
2022-08-19T20:52:56.874Z,1.00
2022-08-19T20:55:23.576Z,1.00
2022-08-19T20:57:50.282Z,1.00
2022-08-19T21:00:17.147Z,1.00
2022-08-19T21:02:43.899Z,1.00
2022-08-19T21:05:11.145Z,1.00
2022-08-19T21:07:39.647Z,1.00
2022-08-19T21:10:07.307Z,1.00
2022-08-19T21:12:34.138Z,1.00
2022-08-19T21:15:00.773Z,1.00
2022-08-19T21:17:27.429Z,1.00
2022-08-19T21:19:54.198Z,99.90
2022-08-19T21:22:20.922Z,99.90
2022-08-19T21:24:47.571Z,99.90
2022-08-19T21:27:14.274Z,99.90
2022-08-19T21:29:42.146Z,99.90
2022-08-19T21:32:11.178Z,99.90
2022-08-19T21:34:41.335Z,99.90
2022-08-19T21:37:11.753Z,99.90
2022-08-19T21:39:40.755Z,99.90
2022-08-19T21:42:07.581Z,99.90
2022-08-19T21:44:35.332Z,99.90
2022-08-19T21:47:05.438Z,99.90
2022-08-19T21:49:36.256Z,99.90
2022-08-19T21:52:03.400Z,99.90
2022-08-19T21:54:37.471Z,99.90
2022-08-19T21:57:10.611Z,99.90
2022-08-19T21:59:39.685Z,99.90
2022-08-19T22:02:21.952Z,99.90
2022-08-19T22:04:52.549Z,99.90
2022-08-19T22:07:20.512Z,99.90
2022-08-19T22:09:48.358Z,99.90
2022-08-19T22:12:27.875Z,99.90
2022-08-19T22:14:55.899Z,99.90
2022-08-19T22:17:23.379Z,99.90
2022-08-19T22:19:52.397Z,99.90
2022-08-19T22:22:30.986Z,99.90
2022-08-19T22:25:06.699Z,99.90
2022-08-19T22:27:33.378Z,99.90
2022-08-19T22:30:00.084Z,99.90
2022-08-19T22:32:28.266Z,99.90
2022-08-19T22:34:57.847Z,99.90
2022-08-19T22:37:25.165Z,99.90
2022-08-19T22:39:51.922Z,99.90
2022-08-19T22:42:20.376Z,99.90
2022-08-19T22:44:47.050Z,99.90
2022-08-19T22:47:13.847Z,99.90
2022-08-19T22:49:40.775Z,99.90
2022-08-19T22:52:19.396Z,99.90
2022-08-19T22:54:56.728Z,99.90
2022-08-19T22:57:23.839Z,99.90
2022-08-19T22:59:52.226Z,99.90
2022-08-19T23:02:34.615Z,99.90
2022-08-19T23:05:03.552Z,99.90
2022-08-19T23:07:30.284Z,99.90
2022-08-19T23:09:57.274Z,99.90
2022-08-19T23:12:39.422Z,99.90
2022-08-19T23:15:07.951Z,99.90
2022-08-19T23:17:35.371Z,99.90
2022-08-19T23:20:03.823Z,99.90
2022-08-19T23:22:30.581Z,99.90
2022-08-19T23:25:05.821Z,99.90
2022-08-19T23:27:51.368Z,99.90
2022-08-19T23:30:27.218Z,99.90
2022-08-19T23:33:00.908Z,99.90
2022-08-19T23:35:32.660Z,99.90
2022-08-19T23:38:01.029Z,99.90
2022-08-19T23:40:28.205Z,99.90
2022-08-19T23:42:54.946Z,99.90
2022-08-19T23:45:25.099Z,99.90
2022-08-19T23:47:53.488Z,99.90
2022-08-19T23:50:21.601Z,99.90
2022-08-19T23:52:54.096Z,99.90
2022-08-19T23:55:24.906Z,99.90
2022-08-19T23:57:52.183Z,99.90
